createdAt,value
2019-03-03T00:01:35.812Z,47.00
2019-03-03T00:04:06.854Z,41.50
2019-03-03T00:06:37.830Z,44.37
2019-03-03T00:09:09.295Z,47.63
2019-03-03T00:11:42.162Z,42.17
2019-03-03T00:14:13.189Z,44.50
2019-03-03T00:16:44.157Z,48.43
2019-03-03T00:19:15.115Z,46.57
2019-03-03T00:21:47.701Z,46.43
2019-03-03T00:24:18.654Z,40.53
2019-03-03T00:26:49.617Z,40.57
2019-03-03T00:29:20.575Z,46.27
2019-03-03T00:31:51.566Z,47.67
2019-03-03T00:34:22.523Z,48.63
2019-03-03T00:37:18.762Z,41.50
2019-03-03T00:40:17.749Z,49.17
2019-03-03T00:42:54.438Z,52.03
2019-03-03T00:45:44.306Z,58.63
2019-03-03T00:48:34.166Z,49.23
2019-03-03T00:51:36.144Z,48.90
2019-03-03T00:54:24.695Z,47.57
2019-03-03T00:57:07.258Z,53.17
2019-03-03T00:59:52.706Z,47.73
2019-03-03T01:02:40.042Z,43.63
2019-03-03T01:05:32.554Z,44.47
2019-03-03T01:08:37.594Z,48.83
2019-03-03T01:11:27.606Z,45.27
2019-03-03T01:14:19.746Z,54.60
2019-03-03T01:17:12.283Z,46.67
2019-03-03T01:20:02.176Z,51.07
2019-03-03T01:22:58.101Z,43.90
2019-03-03T01:25:29.102Z,46.47
2019-03-03T01:28:00.091Z,47.53
2019-03-03T01:30:30.397Z,49.90
2019-03-03T01:33:01.093Z,51.23
2019-03-03T01:35:32.179Z,50.73
2019-03-03T01:38:03.142Z,47.93
2019-03-03T01:40:34.109Z,49.33
2019-03-03T01:43:05.219Z,45.47
2019-03-03T01:45:36.190Z,47.20
2019-03-03T01:48:07.187Z,52.07
2019-03-03T01:50:38.159Z,51.73
2019-03-03T01:53:09.110Z,47.07
2019-03-03T01:55:40.170Z,54.53
2019-03-03T01:58:11.140Z,55.83
2019-03-03T02:00:42.127Z,49.03
2019-03-03T02:03:13.098Z,59.37
2019-03-03T02:05:44.110Z,48.33
2019-03-03T02:08:15.061Z,56.30
2019-03-03T02:10:46.073Z,60.47
2019-03-03T02:13:17.134Z,49.43
2019-03-03T02:15:48.199Z,58.47
2019-03-03T02:18:19.155Z,58.73
2019-03-03T02:20:55.031Z,55.00
2019-03-03T02:23:25.974Z,46.33
2019-03-03T02:25:56.970Z,52.90
2019-03-03T02:28:27.475Z,51.23
2019-03-03T02:30:58.294Z,50.13
2019-03-03T02:33:29.252Z,51.83
2019-03-03T02:36:01.352Z,48.77
2019-03-03T02:38:32.098Z,54.93
2019-03-03T02:41:02.887Z,55.67
2019-03-03T02:43:39.524Z,55.57
2019-03-03T02:46:10.831Z,56.77
2019-03-03T02:48:41.829Z,56.17
2019-03-03T02:51:12.791Z,58.70
2019-03-03T02:53:43.099Z,54.60
2019-03-03T02:56:13.871Z,58.50
2019-03-03T02:58:44.837Z,54.77
2019-03-03T03:01:20.498Z,53.80
2019-03-03T03:03:52.663Z,59.07
2019-03-03T03:06:31.999Z,60.10
2019-03-03T03:09:28.167Z,57.30
2019-03-03T03:12:33.128Z,64.27
2019-03-03T03:15:23.050Z,61.60
2019-03-03T03:18:12.919Z,57.70
2019-03-03T03:20:57.253Z,52.67
2019-03-03T03:23:40.448Z,59.53
2019-03-03T03:26:22.878Z,63.60
2019-03-03T03:29:11.587Z,60.50
2019-03-03T03:32:13.852Z,60.17
2019-03-03T03:34:53.119Z,50.80
2019-03-03T03:37:30.619Z,52.80
2019-03-03T03:40:19.507Z,56.70
2019-03-03T03:43:04.131Z,57.50
2019-03-03T03:46:08.585Z,56.53
2019-03-03T03:49:16.707Z,56.60
2019-03-03T03:51:55.336Z,53.67
2019-03-03T03:54:40.767Z,53.80
2019-03-03T03:57:36.930Z,54.60
2019-03-03T04:00:30.438Z,55.00
2019-03-03T04:03:20.305Z,49.83
2019-03-03T04:06:16.022Z,55.80
2019-03-03T04:08:54.423Z,53.43
2019-03-03T04:11:30.534Z,59.93
2019-03-03T04:14:11.658Z,51.53
2019-03-03T04:16:51.582Z,52.43
2019-03-03T04:19:30.467Z,49.57
2019-03-03T04:22:26.124Z,54.03
2019-03-03T04:25:19.948Z,50.07
2019-03-03T04:28:15.902Z,53.33
2019-03-03T04:31:05.771Z,53.77
2019-03-03T04:34:01.834Z,51.07
2019-03-03T04:36:53.770Z,55.97
2019-03-03T04:39:43.681Z,50.37
2019-03-03T04:42:36.705Z,52.30
2019-03-03T04:45:15.371Z,53.10
2019-03-03T04:48:04.553Z,44.60
2019-03-03T04:50:53.210Z,57.70
2019-03-03T04:53:40.588Z,58.00
2019-03-03T04:56:24.866Z,56.50
2019-03-03T04:59:23.777Z,53.50
2019-03-03T05:02:01.130Z,55.20
2019-03-03T05:04:40.290Z,55.63
2019-03-03T05:07:19.903Z,55.67
2019-03-03T05:10:08.494Z,59.37
2019-03-03T05:13:04.374Z,54.30
2019-03-03T05:16:06.385Z,58.07
2019-03-03T05:19:11.226Z,56.70
2019-03-03T05:21:42.254Z,58.90
2019-03-03T05:24:13.137Z,54.60
2019-03-03T05:26:44.034Z,54.27
2019-03-03T05:29:14.993Z,48.90
2019-03-03T05:31:45.913Z,57.90
2019-03-03T05:34:16.878Z,49.13
2019-03-03T05:36:47.855Z,52.60
2019-03-03T05:39:18.854Z,46.37
2019-03-03T05:41:49.813Z,52.07
2019-03-03T05:44:20.182Z,49.77
2019-03-03T05:46:50.982Z,54.70
2019-03-03T05:49:21.942Z,44.83
2019-03-03T05:51:52.908Z,47.87
2019-03-03T05:54:23.904Z,51.20
2019-03-03T05:56:54.870Z,53.97
2019-03-03T05:59:27.239Z,49.90
2019-03-03T06:01:57.565Z,46.03
2019-03-03T06:04:28.266Z,50.43
2019-03-03T06:06:59.226Z,47.00
2019-03-03T06:09:30.245Z,50.80
2019-03-03T06:12:01.210Z,44.77
2019-03-03T06:14:32.208Z,49.17
2019-03-03T06:17:03.198Z,44.87
2019-03-03T06:19:34.174Z,44.80
2019-03-03T06:22:05.178Z,48.20
2019-03-03T06:24:36.153Z,45.43
2019-03-03T06:27:08.563Z,46.60
2019-03-03T06:29:39.821Z,46.20
2019-03-03T06:32:10.870Z,46.70
2019-03-03T06:34:41.864Z,44.33
2019-03-03T06:37:12.808Z,43.93
2019-03-03T06:39:43.846Z,49.57
2019-03-03T06:42:14.762Z,46.03
2019-03-03T06:44:45.829Z,43.20
2019-03-03T06:47:16.798Z,53.80
2019-03-03T06:49:47.798Z,42.60
2019-03-03T06:52:20.724Z,42.43
2019-03-03T06:54:52.319Z,50.63
2019-03-03T06:57:32.977Z,45.97
2019-03-03T07:00:06.818Z,41.60
2019-03-03T07:02:37.601Z,47.67
2019-03-03T07:05:09.715Z,60.10
2019-03-03T07:07:41.050Z,48.13
2019-03-03T07:10:13.624Z,51.70
2019-03-03T07:12:44.449Z,46.13
2019-03-03T07:15:16.888Z,47.47
2019-03-03T07:17:48.038Z,44.77
2019-03-03T07:20:20.313Z,44.07
2019-03-03T07:22:51.703Z,45.93
2019-03-03T07:25:22.630Z,44.53
2019-03-03T07:27:54.682Z,47.60
2019-03-03T07:30:25.648Z,45.87
2019-03-03T07:33:34.124Z,45.70
2019-03-03T07:36:05.129Z,42.73
2019-03-03T07:38:36.194Z,51.27
2019-03-03T07:41:06.509Z,48.10
2019-03-03T07:43:36.632Z,50.23
2019-03-03T07:46:07.610Z,47.97
2019-03-03T07:48:38.614Z,47.90
2019-03-03T07:51:09.715Z,47.00
2019-03-03T07:53:40.410Z,46.37
2019-03-03T07:56:11.218Z,50.93
2019-03-03T07:58:42.310Z,43.67
2019-03-03T08:01:13.447Z,44.37
2019-03-03T08:03:44.872Z,46.87
2019-03-03T08:06:15.974Z,46.67
2019-03-03T08:08:48.034Z,47.77
2019-03-03T08:11:33.474Z,45.67
2019-03-03T08:14:04.838Z,42.90
2019-03-03T08:16:35.908Z,47.23
2019-03-03T08:19:06.278Z,46.87
2019-03-03T08:21:47.990Z,40.60
2019-03-03T08:24:19.021Z,40.87
2019-03-03T08:26:50.034Z,42.97
2019-03-03T08:29:21.133Z,40.23
2019-03-03T08:31:52.105Z,44.37
2019-03-03T08:34:23.071Z,37.53
2019-03-03T08:36:54.109Z,43.73
2019-03-03T08:39:25.095Z,46.73
2019-03-03T08:42:02.388Z,42.43
2019-03-03T08:44:50.887Z,39.30
2019-03-03T08:47:37.643Z,37.67
2019-03-03T08:50:22.686Z,37.73
2019-03-03T08:53:15.425Z,38.93
2019-03-03T08:56:14.521Z,36.40
2019-03-03T08:58:55.754Z,34.47
2019-03-03T09:01:51.394Z,35.80
2019-03-03T09:04:37.722Z,30.97
2019-03-03T09:07:27.582Z,34.03
2019-03-03T09:10:13.351Z,34.43
2019-03-03T09:12:56.703Z,27.97
2019-03-03T09:15:41.669Z,29.23
2019-03-03T09:18:49.810Z,29.90
2019-03-03T09:21:36.795Z,30.97
2019-03-03T09:24:38.858Z,30.53
2019-03-03T09:27:47.106Z,30.83
2019-03-03T09:30:43.258Z,27.33
2019-03-03T09:33:39.372Z,25.77
2019-03-03T09:36:23.222Z,24.47
2019-03-03T09:39:16.034Z,26.13
2019-03-03T09:42:08.950Z,30.43
2019-03-03T09:44:48.639Z,27.53
2019-03-03T09:47:41.307Z,28.33
2019-03-03T09:50:26.490Z,26.37
2019-03-03T09:53:22.442Z,26.73
2019-03-03T09:56:17.914Z,25.30
2019-03-03T09:59:19.967Z,26.83
2019-03-03T10:02:07.853Z,24.03
2019-03-03T10:04:47.786Z,22.67
2019-03-03T10:07:40.550Z,25.93
2019-03-03T10:10:16.258Z,19.73
2019-03-03T10:13:06.150Z,19.97
2019-03-03T10:15:54.154Z,30.27
2019-03-03T10:18:49.834Z,21.10
2019-03-03T10:21:40.509Z,17.37
2019-03-03T10:24:28.243Z,15.67
2019-03-03T10:27:24.362Z,15.33
2019-03-03T10:30:06.592Z,17.93
2019-03-03T10:33:02.617Z,14.90
2019-03-03T10:35:58.534Z,15.80
2019-03-03T10:38:42.018Z,14.60
2019-03-03T10:41:27.058Z,18.20
2019-03-03T10:44:03.233Z,12.80
2019-03-03T10:46:44.578Z,14.27
2019-03-03T10:49:21.878Z,20.20
2019-03-03T10:52:09.861Z,17.37
2019-03-03T10:54:46.887Z,13.20
2019-03-03T10:57:35.574Z,11.37
2019-03-03T11:00:25.017Z,12.07
2019-03-03T11:03:07.239Z,13.53
2019-03-03T11:05:56.139Z,13.40
2019-03-03T11:08:45.278Z,11.30
2019-03-03T11:11:35.585Z,15.00
2019-03-03T11:14:17.550Z,12.87
2019-03-03T11:17:10.459Z,11.27
2019-03-03T11:19:54.645Z,10.77
2019-03-03T11:22:36.378Z,10.23
2019-03-03T11:25:29.371Z,15.13
2019-03-03T11:28:23.577Z,11.60
2019-03-03T11:31:26.534Z,10.03
2019-03-03T11:34:11.158Z,8.77
2019-03-03T11:36:53.433Z,8.07
2019-03-03T11:39:44.630Z,9.30
2019-03-03T11:42:27.476Z,11.57
2019-03-03T11:45:06.116Z,9.07
2019-03-03T11:48:03.818Z,10.43
2019-03-03T11:50:53.657Z,8.67
2019-03-03T11:53:55.791Z,10.53
2019-03-03T11:56:51.257Z,9.73
2019-03-03T11:59:43.681Z,13.77
2019-03-03T12:02:34.009Z,9.93
2019-03-03T12:05:15.358Z,10.40
2019-03-03T12:07:55.998Z,7.67
2019-03-03T12:10:36.202Z,9.47
2019-03-03T12:13:19.727Z,13.13
2019-03-03T12:16:04.794Z,10.87
2019-03-03T12:18:46.531Z,9.20
2019-03-03T12:21:30.218Z,11.83
2019-03-03T12:24:18.962Z,10.57
2019-03-03T12:26:56.306Z,9.47
2019-03-03T12:29:49.278Z,12.40
2019-03-03T12:32:29.505Z,16.90
2019-03-03T12:35:06.562Z,15.47
2019-03-03T12:37:42.098Z,14.23
2019-03-03T12:40:41.081Z,8.10
2019-03-03T12:43:33.910Z,11.73
2019-03-03T12:46:36.702Z,11.37
2019-03-03T12:49:29.246Z,14.73
2019-03-03T12:52:19.257Z,13.20
2019-03-03T12:55:24.032Z,12.20
2019-03-03T12:58:04.510Z,11.27
2019-03-03T13:01:09.997Z,7.90
2019-03-03T13:03:59.898Z,10.07
2019-03-03T13:06:55.822Z,13.17
2019-03-03T13:09:45.762Z,11.27
2019-03-03T13:12:25.384Z,10.37
2019-03-03T13:15:11.969Z,10.07
2019-03-03T13:18:00.824Z,5.93
2019-03-03T13:21:06.431Z,11.40
2019-03-03T13:23:49.747Z,9.27
2019-03-03T13:26:58.062Z,9.60
2019-03-03T13:30:06.328Z,11.03
2019-03-03T13:32:53.483Z,8.03
2019-03-03T13:35:39.698Z,15.40
2019-03-03T13:38:18.486Z,10.80
2019-03-03T13:41:14.583Z,19.23
2019-03-03T13:43:45.618Z,13.97
2019-03-03T13:46:16.718Z,8.63
2019-03-03T13:48:47.792Z,8.50
2019-03-03T13:51:18.130Z,11.90
2019-03-03T13:53:48.962Z,6.77
2019-03-03T13:56:19.357Z,7.27
2019-03-03T13:58:50.138Z,11.27
2019-03-03T14:01:21.235Z,8.03
2019-03-03T14:03:52.312Z,10.80
2019-03-03T14:06:23.419Z,10.60
2019-03-03T14:08:54.370Z,10.50
2019-03-03T14:11:31.726Z,12.63
2019-03-03T14:14:02.749Z,18.07
2019-03-03T14:16:33.710Z,15.53
2019-03-03T14:19:04.797Z,18.97
2019-03-03T14:21:35.874Z,13.60
2019-03-03T14:24:07.086Z,33.53
2019-03-03T14:26:38.214Z,18.63
2019-03-03T14:29:09.512Z,9.70
2019-03-03T14:31:40.482Z,14.50
2019-03-03T14:34:11.495Z,11.47
2019-03-03T14:36:42.503Z,18.03
2019-03-03T14:39:12.853Z,15.40
2019-03-03T14:41:43.938Z,12.43
2019-03-03T14:44:14.934Z,11.43
2019-03-03T14:46:45.862Z,13.23
2019-03-03T14:49:17.354Z,15.03
2019-03-03T14:51:48.119Z,19.70
2019-03-03T14:54:19.117Z,13.20
2019-03-03T14:56:50.090Z,17.40
2019-03-03T14:59:20.966Z,12.93
2019-03-03T15:01:51.986Z,16.13
2019-03-03T15:04:22.946Z,15.40
2019-03-03T15:06:53.942Z,14.80
2019-03-03T15:09:24.692Z,9.80
2019-03-03T15:11:55.575Z,16.33
2019-03-03T15:14:26.534Z,14.37
2019-03-03T15:16:57.532Z,16.87
2019-03-03T15:19:28.494Z,13.33
2019-03-03T15:21:59.419Z,15.00
2019-03-03T15:24:30.450Z,11.30
2019-03-03T15:27:01.510Z,14.47
2019-03-03T15:29:32.539Z,11.97
2019-03-03T15:32:03.526Z,15.33
2019-03-03T15:34:35.559Z,17.00
2019-03-03T15:37:08.122Z,14.73
2019-03-03T15:39:39.010Z,16.77
2019-03-03T15:42:09.426Z,14.60
2019-03-03T15:44:40.123Z,13.20
2019-03-03T15:47:11.115Z,16.03
2019-03-03T15:49:42.078Z,11.10
2019-03-03T15:52:13.078Z,14.33
2019-03-03T15:54:43.414Z,12.40
2019-03-03T15:57:17.502Z,14.53
2019-03-03T15:59:49.449Z,13.40
2019-03-03T16:02:23.476Z,13.63
2019-03-03T16:04:54.618Z,18.13
2019-03-03T16:07:29.834Z,17.83
2019-03-03T16:10:01.467Z,24.83
2019-03-03T16:12:32.606Z,18.20
2019-03-03T16:15:03.902Z,14.43
2019-03-03T16:17:34.925Z,21.27
2019-03-03T16:20:11.079Z,15.83
2019-03-03T16:22:43.071Z,19.10
2019-03-03T16:25:15.012Z,17.57
2019-03-03T16:27:46.042Z,15.00
2019-03-03T16:30:18.582Z,15.37
2019-03-03T16:32:49.912Z,15.70
2019-03-03T16:35:21.322Z,17.03
2019-03-03T16:37:53.574Z,16.03
2019-03-03T16:40:24.658Z,14.93
2019-03-03T16:42:55.642Z,23.23
2019-03-03T16:45:26.730Z,20.07
2019-03-03T16:47:58.234Z,14.90
2019-03-03T16:50:30.994Z,20.17
2019-03-03T16:53:02.258Z,16.33
2019-03-03T16:55:33.862Z,18.00
2019-03-03T16:58:04.945Z,19.37
2019-03-03T17:00:36.004Z,16.30
2019-03-03T17:03:10.379Z,18.80
2019-03-03T17:05:41.778Z,21.10
2019-03-03T17:08:12.874Z,18.90
2019-03-03T17:10:43.858Z,17.17
2019-03-03T17:13:14.838Z,15.10
2019-03-03T17:15:49.509Z,18.13
2019-03-03T17:18:20.882Z,16.60
2019-03-03T17:20:51.974Z,16.00
2019-03-03T17:23:23.090Z,15.67
2019-03-03T17:25:54.277Z,19.53
2019-03-03T17:28:25.283Z,13.53
2019-03-03T17:30:56.258Z,18.50
2019-03-03T17:33:27.466Z,12.90
2019-03-03T17:35:58.550Z,16.97
2019-03-03T17:38:29.517Z,17.67
2019-03-03T17:41:00.842Z,21.90
2019-03-03T17:43:31.216Z,17.43
2019-03-03T17:46:02.034Z,17.60
2019-03-03T17:48:33.026Z,17.17
2019-03-03T17:51:03.955Z,23.27
2019-03-03T17:53:35.298Z,21.47
2019-03-03T17:56:06.319Z,17.73
2019-03-03T17:58:37.714Z,20.73
2019-03-03T18:01:08.607Z,15.50
2019-03-03T18:03:39.607Z,15.03
2019-03-03T18:06:10.683Z,17.00
2019-03-03T18:08:41.765Z,15.13
2019-03-03T18:11:12.066Z,19.30
2019-03-03T18:13:42.176Z,14.80
2019-03-03T18:16:12.650Z,18.77
2019-03-03T18:18:42.788Z,18.83
2019-03-03T18:21:12.938Z,15.30
2019-03-03T18:23:43.094Z,17.23
2019-03-03T18:26:13.871Z,23.27
2019-03-03T18:28:44.877Z,19.30
2019-03-03T18:31:15.846Z,26.57
2019-03-03T18:33:46.831Z,27.13
2019-03-03T18:36:17.842Z,20.83
2019-03-03T18:38:48.826Z,16.77
2019-03-03T18:41:19.786Z,20.63
2019-03-03T18:43:50.766Z,20.70
2019-03-03T18:46:22.874Z,18.70
2019-03-03T18:48:53.886Z,16.50
2019-03-03T18:51:24.878Z,19.13
2019-03-03T18:53:56.555Z,19.83
2019-03-03T18:56:27.778Z,17.47
2019-03-03T18:58:58.760Z,18.87
2019-03-03T19:01:29.762Z,17.70
2019-03-03T19:04:00.885Z,17.17
2019-03-03T19:06:32.102Z,19.47
2019-03-03T19:09:03.350Z,19.37
2019-03-03T19:11:36.190Z,18.43
2019-03-03T19:14:07.658Z,19.97
2019-03-03T19:16:38.714Z,16.70
2019-03-03T19:19:10.110Z,23.10
2019-03-03T19:21:42.370Z,22.00
2019-03-03T19:24:13.490Z,18.70
2019-03-03T19:26:45.771Z,18.33
2019-03-03T19:29:17.021Z,17.03
2019-03-03T19:31:48.182Z,15.80
2019-03-03T19:34:23.587Z,22.13
2019-03-03T19:36:55.134Z,19.77
2019-03-03T19:39:26.122Z,55.30
2019-03-03T19:41:57.158Z,15.50
2019-03-03T19:44:28.338Z,18.90
2019-03-03T19:46:59.294Z,15.53
2019-03-03T19:49:30.286Z,13.37
2019-03-03T19:52:01.242Z,13.13
2019-03-03T19:54:33.332Z,17.30
2019-03-03T19:57:04.490Z,17.70
2019-03-03T19:59:35.546Z,17.70
2019-03-03T20:02:06.556Z,13.17
2019-03-03T20:04:37.582Z,13.07
2019-03-03T20:07:08.487Z,15.10
2019-03-03T20:09:40.003Z,16.53
2019-03-03T20:12:11.242Z,14.30
2019-03-03T20:14:42.200Z,15.50
2019-03-03T20:17:13.694Z,13.97
2019-03-03T20:19:45.269Z,13.80
2019-03-03T20:22:18.028Z,17.47
2019-03-03T20:24:49.611Z,17.90
2019-03-03T20:27:20.998Z,17.40
2019-03-03T20:29:52.054Z,15.27
2019-03-03T20:32:23.662Z,16.43
2019-03-03T20:34:54.646Z,12.67
2019-03-03T20:37:25.738Z,17.27
2019-03-03T20:39:57.426Z,17.37
2019-03-03T20:42:28.454Z,13.83
2019-03-03T20:44:59.546Z,19.57
2019-03-03T20:47:31.013Z,18.03
2019-03-03T20:50:02.195Z,14.67
2019-03-03T20:52:34.718Z,16.33
2019-03-03T20:55:07.324Z,12.27
2019-03-03T20:57:38.286Z,14.60
2019-03-03T21:00:16.351Z,16.03
2019-03-03T21:02:47.769Z,15.50
2019-03-03T21:05:18.086Z,13.87
2019-03-03T21:07:51.786Z,17.07
2019-03-03T21:10:35.206Z,15.47
2019-03-03T21:13:06.557Z,15.77
2019-03-03T21:15:38.125Z,14.80
2019-03-03T21:18:08.602Z,16.50
2019-03-03T21:20:40.186Z,17.77
2019-03-03T21:23:13.209Z,16.23
2019-03-03T21:25:44.217Z,15.00
2019-03-03T21:28:15.398Z,13.03
2019-03-03T21:30:46.574Z,18.50
2019-03-03T21:33:18.310Z,16.37
2019-03-03T21:35:49.257Z,17.23
2019-03-03T21:38:39.151Z,18.03
2019-03-03T21:43:54.725Z,18.97
2019-03-03T21:46:25.610Z,13.37
2019-03-03T21:48:56.803Z,13.83
2019-03-03T21:51:27.922Z,19.07
2019-03-03T21:53:58.946Z,18.67
2019-03-03T21:56:30.068Z,15.30
2019-03-03T21:59:01.098Z,11.27
2019-03-03T22:01:31.462Z,14.27
2019-03-03T22:04:02.310Z,12.83
2019-03-03T22:06:33.783Z,17.27
2019-03-03T22:09:07.434Z,14.57
2019-03-03T22:11:40.019Z,13.10
2019-03-03T22:14:11.645Z,16.33
2019-03-03T22:16:42.534Z,12.63
2019-03-03T22:19:13.445Z,11.50
2019-03-03T22:21:44.330Z,16.83
2019-03-03T22:24:14.667Z,13.60
2019-03-03T22:26:45.430Z,13.57
2019-03-03T22:29:16.445Z,17.23
2019-03-03T22:31:47.694Z,14.77
2019-03-03T22:34:18.654Z,10.20
2019-03-03T22:36:49.642Z,13.00
2019-03-03T22:39:19.937Z,12.03
2019-03-03T22:41:49.971Z,12.07
2019-03-03T22:44:20.723Z,12.93
2019-03-03T22:46:51.670Z,11.70
2019-03-03T22:49:22.586Z,14.37
2019-03-03T22:51:52.887Z,10.23
2019-03-03T22:54:23.031Z,11.03
2019-03-03T22:56:53.790Z,10.93
2019-03-03T22:59:25.028Z,14.67
2019-03-03T23:01:56.034Z,11.17
2019-03-03T23:04:59.469Z,7.67
2019-03-03T23:07:54.666Z,15.73
2019-03-03T23:11:20.702Z,11.17
2019-03-03T23:14:29.119Z,10.40
2019-03-03T23:17:33.634Z,8.33
2019-03-03T23:20:43.894Z,8.63
2019-03-03T23:24:04.858Z,9.77
2019-03-03T23:26:35.894Z,14.47
2019-03-03T23:29:07.933Z,8.97
2019-03-03T23:31:38.890Z,12.13
2019-03-03T23:34:11.971Z,9.27
2019-03-03T23:36:42.446Z,12.63
2019-03-03T23:39:13.426Z,9.53
2019-03-03T23:41:44.311Z,12.63
2019-03-03T23:44:15.290Z,9.87
2019-03-03T23:46:46.167Z,8.40
2019-03-03T23:49:17.209Z,10.27
2019-03-03T23:51:48.097Z,7.87
2019-03-03T23:54:19.001Z,10.07
2019-03-03T23:56:49.970Z,11.93
2019-03-03T23:59:20.949Z,19.63
